sensor_id;sensor_type;location;lat;lon;timestamp;temperature;humidity
20712;DHT22;10517;50.742;4.224;2022-10-31T00:01:24;14.30;99.90
20712;DHT22;10517;50.742;4.224;2022-10-31T00:03:50;14.30;99.90
20712;DHT22;10517;50.742;4.224;2022-10-31T00:06:16;14.20;99.90
20712;DHT22;10517;50.742;4.224;2022-10-31T00:08:46;14.20;99.90
20712;DHT22;10517;50.742;4.224;2022-10-31T00:11:12;14.10;99.90
20712;DHT22;10517;50.742;4.224;2022-10-31T00:13:38;14.00;99.90
20712;DHT22;10517;50.742;4.224;2022-10-31T00:16:03;14.00;99.90
20712;DHT22;10517;50.742;4.224;2022-10-31T00:18:29;14.00;99.90
20712;DHT22;10517;50.742;4.224;2022-10-31T00:20:59;13.90;99.90
20712;DHT22;10517;50.742;4.224;2022-10-31T00:23:25;13.90;99.90
20712;DHT22;10517;50.742;4.224;2022-10-31T00:25:51;13.80;99.90
20712;DHT22;10517;50.742;4.224;2022-10-31T00:28:16;13.80;99.90
20712;DHT22;10517;50.742;4.224;2022-10-31T00:30:42;13.70;99.90
20712;DHT22;10517;50.742;4.224;2022-10-31T00:33:07;13.60;99.90
20712;DHT22;10517;50.742;4.224;2022-10-31T00:35:33;13.50;99.90
20712;DHT22;10517;50.742;4.224;2022-10-31T00:37:58;13.50;99.90
20712;DHT22;10517;50.742;4.224;2022-10-31T00:40:24;13.40;99.90
20712;DHT22;10517;50.742;4.224;2022-10-31T00:42:49;13.30;99.90
20712;DHT22;10517;50.742;4.224;2022-10-31T00:45:15;13.30;99.90
20712;DHT22;10517;50.742;4.224;2022-10-31T00:47:41;13.20;99.90
20712;DHT22;10517;50.742;4.224;2022-10-31T00:50:07;13.10;99.90
20712;DHT22;10517;50.742;4.224;2022-10-31T00:52:33;13.10;99.90
20712;DHT22;10517;50.742;4.224;2022-10-31T00:54:58;13.10;99.90
20712;DHT22;10517;50.742;4.224;2022-10-31T00:57:24;13.10;99.90
20712;DHT22;10517;50.742;4.224;2022-10-31T00:59:50;13.00;99.90
20712;DHT22;10517;50.742;4.224;2022-10-31T01:02:15;13.00;99.90
20712;DHT22;10517;50.742;4.224;2022-10-31T01:04:41;13.00;99.90
20712;DHT22;10517;50.742;4.224;2022-10-31T01:07:06;13.00;99.90
20712;DHT22;10517;50.742;4.224;2022-10-31T01:09:32;13.00;99.90
20712;DHT22;10517;50.742;4.224;2022-10-31T01:11:57;13.00;99.90
20712;DHT22;10517;50.742;4.224;2022-10-31T01:14:23;13.00;99.90
20712;DHT22;10517;50.742;4.224;2022-10-31T01:16:49;13.00;99.90
20712;DHT22;10517;50.742;4.224;2022-10-31T01:19:14;13.00;99.90
20712;DHT22;10517;50.742;4.224;2022-10-31T01:21:40;13.00;99.90
20712;DHT22;10517;50.742;4.224;2022-10-31T01:24:05;12.90;99.90
20712;DHT22;10517;50.742;4.224;2022-10-31T01:26:33;12.90;99.90
20712;DHT22;10517;50.742;4.224;2022-10-31T01:29:01;12.80;99.90
20712;DHT22;10517;50.742;4.224;2022-10-31T01:31:29;12.80;99.90
20712;DHT22;10517;50.742;4.224;2022-10-31T01:33:55;12.70;99.90
20712;DHT22;10517;50.742;4.224;2022-10-31T01:36:27;12.70;99.90
20712;DHT22;10517;50.742;4.224;2022-10-31T01:38:55;12.60;99.90
20712;DHT22;10517;50.742;4.224;2022-10-31T01:41:23;12.60;99.90
20712;DHT22;10517;50.742;4.224;2022-10-31T01:43:58;12.50;99.90
20712;DHT22;10517;50.742;4.224;2022-10-31T01:46:31;12.40;99.90
20712;DHT22;10517;50.742;4.224;2022-10-31T01:49:00;12.40;99.90
20712;DHT22;10517;50.742;4.224;2022-10-31T01:51:30;12.30;99.90
20712;DHT22;10517;50.742;4.224;2022-10-31T01:54:02;12.30;99.90
20712;DHT22;10517;50.742;4.224;2022-10-31T01:56:30;12.30;99.90
20712;DHT22;10517;50.742;4.224;2022-10-31T01:58:57;12.30;99.90
20712;DHT22;10517;50.742;4.224;2022-10-31T02:01:25;12.30;99.90
20712;DHT22;10517;50.742;4.224;2022-10-31T02:03:51;12.30;99.90
20712;DHT22;10517;50.742;4.224;2022-10-31T02:06:42;12.20;99.90
20712;DHT22;10517;50.742;4.224;2022-10-31T02:09:10;12.20;99.90
20712;DHT22;10517;50.742;4.224;2022-10-31T02:11:38;12.20;99.90
20712;DHT22;10517;50.742;4.224;2022-10-31T02:14:04;12.20;99.90
20712;DHT22;10517;50.742;4.224;2022-10-31T02:16:29;12.10;99.90
20712;DHT22;10517;50.742;4.224;2022-10-31T02:18:56;12.10;99.90
20712;DHT22;10517;50.742;4.224;2022-10-31T02:22:02;12.10;99.90
20712;DHT22;10517;50.742;4.224;2022-10-31T02:25:19;12.10;99.90
20712;DHT22;10517;50.742;4.224;2022-10-31T02:27:41;12.10;99.90
20712;DHT22;10517;50.742;4.224;2022-10-31T02:30:18;12.10;99.90
20712;DHT22;10517;50.742;4.224;2022-10-31T02:32:54;12.00;99.90
20712;DHT22;10517;50.742;4.224;2022-10-31T02:35:54;12.00;99.90
20712;DHT22;10517;50.742;4.224;2022-10-31T02:38:38;11.90;99.90
20712;DHT22;10517;50.742;4.224;2022-10-31T02:44:07;11.80;99.90
20712;DHT22;10517;50.742;4.224;2022-10-31T02:46:48;11.80;99.90
20712;DHT22;10517;50.742;4.224;2022-10-31T02:49:22;11.80;99.90
20712;DHT22;10517;50.742;4.224;2022-10-31T02:51:50;11.70;99.90
20712;DHT22;10517;50.742;4.224;2022-10-31T02:54:24;11.60;99.90
20712;DHT22;10517;50.742;4.224;2022-10-31T02:56:57;11.60;99.90
20712;DHT22;10517;50.742;4.224;2022-10-31T02:59:25;11.60;99.90
20712;DHT22;10517;50.742;4.224;2022-10-31T03:02:00;11.60;99.90
20712;DHT22;10517;50.742;4.224;2022-10-31T03:04:53;11.60;99.90
20712;DHT22;10517;50.742;4.224;2022-10-31T03:07:46;11.60;99.90
20712;DHT22;10517;50.742;4.224;2022-10-31T03:13:28;11.40;99.90
20712;DHT22;10517;50.742;4.224;2022-10-31T03:16:18;11.40;99.90
20712;DHT22;10517;50.742;4.224;2022-10-31T03:18:55;11.30;99.90
20712;DHT22;10517;50.742;4.224;2022-10-31T03:21:46;11.30;99.90
20712;DHT22;10517;50.742;4.224;2022-10-31T03:24:15;11.30;99.90
20712;DHT22;10517;50.742;4.224;2022-10-31T03:26:44;11.30;99.90
20712;DHT22;10517;50.742;4.224;2022-10-31T03:29:14;11.20;99.90
20712;DHT22;10517;50.742;4.224;2022-10-31T03:31:54;11.20;99.90
20712;DHT22;10517;50.742;4.224;2022-10-31T03:34:22;11.20;99.90
20712;DHT22;10517;50.742;4.224;2022-10-31T03:36:50;11.20;99.90
20712;DHT22;10517;50.742;4.224;2022-10-31T03:39:19;11.20;99.90
20712;DHT22;10517;50.742;4.224;2022-10-31T03:42:02;11.20;99.90
20712;DHT22;10517;50.742;4.224;2022-10-31T03:44:29;11.10;99.90
20712;DHT22;10517;50.742;4.224;2022-10-31T03:46:56;11.10;99.90
20712;DHT22;10517;50.742;4.224;2022-10-31T03:49:22;11.10;99.90
20712;DHT22;10517;50.742;4.224;2022-10-31T03:54:43;11.00;99.90
20712;DHT22;10517;50.742;4.224;2022-10-31T04:00:11;11.00;99.90
20712;DHT22;10517;50.742;4.224;2022-10-31T04:02:42;11.00;99.90
20712;DHT22;10517;50.742;4.224;2022-10-31T04:05:10;10.90;99.90
20712;DHT22;10517;50.742;4.224;2022-10-31T04:07:42;10.90;99.90
20712;DHT22;10517;50.742;4.224;2022-10-31T04:10:12;10.90;99.90
20712;DHT22;10517;50.742;4.224;2022-10-31T04:12:39;10.80;99.90
20712;DHT22;10517;50.742;4.224;2022-10-31T04:15:06;10.80;99.90
20712;DHT22;10517;50.742;4.224;2022-10-31T04:17:36;10.80;99.90
20712;DHT22;10517;50.742;4.224;2022-10-31T04:20:03;10.80;99.90
20712;DHT22;10517;50.742;4.224;2022-10-31T04:22:29;10.80;99.90
20712;DHT22;10517;50.742;4.224;2022-10-31T04:24:55;10.80;99.90
20712;DHT22;10517;50.742;4.224;2022-10-31T04:27:20;10.80;99.90
20712;DHT22;10517;50.742;4.224;2022-10-31T04:29:46;10.70;99.90
20712;DHT22;10517;50.742;4.224;2022-10-31T04:32:11;10.70;99.90
20712;DHT22;10517;50.742;4.224;2022-10-31T04:34:37;10.60;99.90
20712;DHT22;10517;50.742;4.224;2022-10-31T04:37:02;10.60;99.90
20712;DHT22;10517;50.742;4.224;2022-10-31T04:39:28;10.60;99.90
20712;DHT22;10517;50.742;4.224;2022-10-31T04:41:53;10.70;99.90
20712;DHT22;10517;50.742;4.224;2022-10-31T04:44:19;10.60;99.90
20712;DHT22;10517;50.742;4.224;2022-10-31T04:46:44;10.60;99.90
20712;DHT22;10517;50.742;4.224;2022-10-31T04:49:10;10.60;99.90
20712;DHT22;10517;50.742;4.224;2022-10-31T04:51:36;10.60;99.90
20712;DHT22;10517;50.742;4.224;2022-10-31T04:54:01;10.60;99.90
20712;DHT22;10517;50.742;4.224;2022-10-31T04:56:27;10.60;99.90
20712;DHT22;10517;50.742;4.224;2022-10-31T04:58:52;10.70;99.90
20712;DHT22;10517;50.742;4.224;2022-10-31T05:01:18;10.70;99.90
20712;DHT22;10517;50.742;4.224;2022-10-31T05:03:44;10.70;99.90
20712;DHT22;10517;50.742;4.224;2022-10-31T05:06:09;10.80;99.90
20712;DHT22;10517;50.742;4.224;2022-10-31T05:08:35;10.90;99.90
20712;DHT22;10517;50.742;4.224;2022-10-31T05:11:01;11.00;99.90
20712;DHT22;10517;50.742;4.224;2022-10-31T05:13:27;11.00;99.90
20712;DHT22;10517;50.742;4.224;2022-10-31T05:15:53;11.10;99.90
20712;DHT22;10517;50.742;4.224;2022-10-31T05:18:18;11.10;99.90
20712;DHT22;10517;50.742;4.224;2022-10-31T05:20:44;11.10;99.90
20712;DHT22;10517;50.742;4.224;2022-10-31T05:23:09;11.10;99.90
20712;DHT22;10517;50.742;4.224;2022-10-31T05:25:35;11.10;99.90
20712;DHT22;10517;50.742;4.224;2022-10-31T05:28:00;11.20;99.90
20712;DHT22;10517;50.742;4.224;2022-10-31T05:30:29;11.10;99.90
20712;DHT22;10517;50.742;4.224;2022-10-31T05:32:55;11.10;99.90
20712;DHT22;10517;50.742;4.224;2022-10-31T05:35:26;11.10;99.90
20712;DHT22;10517;50.742;4.224;2022-10-31T05:37:53;11.10;99.90
20712;DHT22;10517;50.742;4.224;2022-10-31T05:40:19;11.10;99.90
20712;DHT22;10517;50.742;4.224;2022-10-31T05:42:46;11.10;99.90
20712;DHT22;10517;50.742;4.224;2022-10-31T05:45:16;11.20;99.90
20712;DHT22;10517;50.742;4.224;2022-10-31T05:47:49;11.30;99.90
20712;DHT22;10517;50.742;4.224;2022-10-31T05:50:14;11.40;99.90
20712;DHT22;10517;50.742;4.224;2022-10-31T05:52:40;11.50;99.90
20712;DHT22;10517;50.742;4.224;2022-10-31T05:55:06;11.50;99.90
20712;DHT22;10517;50.742;4.224;2022-10-31T05:57:32;11.50;99.90
20712;DHT22;10517;50.742;4.224;2022-10-31T05:59:58;11.50;99.90
20712;DHT22;10517;50.742;4.224;2022-10-31T06:02:24;11.50;99.90
20712;DHT22;10517;50.742;4.224;2022-10-31T06:04:50;11.50;99.90
20712;DHT22;10517;50.742;4.224;2022-10-31T06:07:16;11.60;99.90
20712;DHT22;10517;50.742;4.224;2022-10-31T06:09:41;11.60;99.90
20712;DHT22;10517;50.742;4.224;2022-10-31T06:12:07;11.60;99.90
20712;DHT22;10517;50.742;4.224;2022-10-31T06:14:32;11.70;99.90
20712;DHT22;10517;50.742;4.224;2022-10-31T06:16:58;11.70;99.90
20712;DHT22;10517;50.742;4.224;2022-10-31T06:19:23;11.80;99.90
20712;DHT22;10517;50.742;4.224;2022-10-31T06:21:49;11.80;99.90
20712;DHT22;10517;50.742;4.224;2022-10-31T06:24:14;11.90;99.90
20712;DHT22;10517;50.742;4.224;2022-10-31T06:26:40;12.00;99.90
20712;DHT22;10517;50.742;4.224;2022-10-31T06:29:06;12.00;99.90
20712;DHT22;10517;50.742;4.224;2022-10-31T06:31:31;12.10;99.90
20712;DHT22;10517;50.742;4.224;2022-10-31T06:33:57;12.10;99.90
20712;DHT22;10517;50.742;4.224;2022-10-31T06:36:22;12.20;99.90
20712;DHT22;10517;50.742;4.224;2022-10-31T06:38:48;12.20;99.90
20712;DHT22;10517;50.742;4.224;2022-10-31T06:41:14;12.30;99.90
20712;DHT22;10517;50.742;4.224;2022-10-31T06:43:39;12.30;99.90
20712;DHT22;10517;50.742;4.224;2022-10-31T06:46:05;12.40;99.90
20712;DHT22;10517;50.742;4.224;2022-10-31T06:48:31;12.40;99.90
20712;DHT22;10517;50.742;4.224;2022-10-31T06:51:00;12.50;99.90
20712;DHT22;10517;50.742;4.224;2022-10-31T06:53:27;12.50;99.90
20712;DHT22;10517;50.742;4.224;2022-10-31T06:55:55;12.60;99.90
20712;DHT22;10517;50.742;4.224;2022-10-31T06:58:21;12.60;99.90
20712;DHT22;10517;50.742;4.224;2022-10-31T07:00:47;12.60;99.90
20712;DHT22;10517;50.742;4.224;2022-10-31T07:03:14;12.60;99.90
20712;DHT22;10517;50.742;4.224;2022-10-31T07:05:41;12.70;99.90
20712;DHT22;10517;50.742;4.224;2022-10-31T07:08:09;12.80;99.90
20712;DHT22;10517;50.742;4.224;2022-10-31T07:10:36;12.80;99.90
20712;DHT22;10517;50.742;4.224;2022-10-31T07:13:04;12.90;99.90
20712;DHT22;10517;50.742;4.224;2022-10-31T07:15:34;12.90;99.90
20712;DHT22;10517;50.742;4.224;2022-10-31T07:18:01;12.90;99.90
20712;DHT22;10517;50.742;4.224;2022-10-31T07:20:28;13.00;99.90
20712;DHT22;10517;50.742;4.224;2022-10-31T07:22:53;13.00;99.90
20712;DHT22;10517;50.742;4.224;2022-10-31T07:25:20;13.10;99.90
20712;DHT22;10517;50.742;4.224;2022-10-31T07:27:45;13.20;99.90
20712;DHT22;10517;50.742;4.224;2022-10-31T07:30:12;13.30;99.90
20712;DHT22;10517;50.742;4.224;2022-10-31T07:32:42;13.30;99.90
20712;DHT22;10517;50.742;4.224;2022-10-31T07:35:09;13.30;99.90
20712;DHT22;10517;50.742;4.224;2022-10-31T07:37:35;13.30;99.90
20712;DHT22;10517;50.742;4.224;2022-10-31T07:40:01;13.30;99.90
20712;DHT22;10517;50.742;4.224;2022-10-31T07:42:27;13.40;99.90
20712;DHT22;10517;50.742;4.224;2022-10-31T07:44:52;13.50;99.90
20712;DHT22;10517;50.742;4.224;2022-10-31T07:47:18;13.40;99.90
20712;DHT22;10517;50.742;4.224;2022-10-31T07:49:43;13.40;99.90
20712;DHT22;10517;50.742;4.224;2022-10-31T07:52:09;13.40;99.90
20712;DHT22;10517;50.742;4.224;2022-10-31T07:54:35;13.50;99.90
20712;DHT22;10517;50.742;4.224;2022-10-31T07:57:00;13.50;99.90
20712;DHT22;10517;50.742;4.224;2022-10-31T07:59:26;13.50;99.90
20712;DHT22;10517;50.742;4.224;2022-10-31T08:01:52;13.60;99.90
20712;DHT22;10517;50.742;4.224;2022-10-31T08:04:18;13.60;99.90
20712;DHT22;10517;50.742;4.224;2022-10-31T08:06:43;13.70;99.90
20712;DHT22;10517;50.742;4.224;2022-10-31T08:09:09;13.70;99.90
20712;DHT22;10517;50.742;4.224;2022-10-31T08:11:34;13.70;99.90
20712;DHT22;10517;50.742;4.224;2022-10-31T08:14:00;13.60;99.90
20712;DHT22;10517;50.742;4.224;2022-10-31T08:16:26;13.70;99.90
20712;DHT22;10517;50.742;4.224;2022-10-31T08:18:52;13.80;99.90
20712;DHT22;10517;50.742;4.224;2022-10-31T08:21:21;13.90;99.90
20712;DHT22;10517;50.742;4.224;2022-10-31T08:23:46;13.90;99.90
20712;DHT22;10517;50.742;4.224;2022-10-31T08:26:12;14.00;99.90
20712;DHT22;10517;50.742;4.224;2022-10-31T08:28:37;14.00;99.90
20712;DHT22;10517;50.742;4.224;2022-10-31T08:31:03;14.00;99.90
20712;DHT22;10517;50.742;4.224;2022-10-31T08:33:30;14.00;99.90
20712;DHT22;10517;50.742;4.224;2022-10-31T08:35:57;13.90;99.90
20712;DHT22;10517;50.742;4.224;2022-10-31T08:38:23;14.00;99.90
20712;DHT22;10517;50.742;4.224;2022-10-31T08:40:49;14.20;99.90
20712;DHT22;10517;50.742;4.224;2022-10-31T08:43:16;14.40;99.90
20712;DHT22;10517;50.742;4.224;2022-10-31T08:45:43;14.60;99.90
20712;DHT22;10517;50.742;4.224;2022-10-31T08:48:11;14.80;99.90
20712;DHT22;10517;50.742;4.224;2022-10-31T08:50:37;14.90;99.90
20712;DHT22;10517;50.742;4.224;2022-10-31T08:53:08;15.10;99.90
20712;DHT22;10517;50.742;4.224;2022-10-31T08:55:35;15.10;99.90
20712;DHT22;10517;50.742;4.224;2022-10-31T08:58:02;15.20;99.90
20712;DHT22;10517;50.742;4.224;2022-10-31T09:00:28;15.30;99.90
20712;DHT22;10517;50.742;4.224;2022-10-31T09:02:59;15.60;99.90
20712;DHT22;10517;50.742;4.224;2022-10-31T09:05:25;15.50;99.90
20712;DHT22;10517;50.742;4.224;2022-10-31T09:07:51;15.50;99.90
20712;DHT22;10517;50.742;4.224;2022-10-31T09:10:16;15.70;99.90
20712;DHT22;10517;50.742;4.224;2022-10-31T09:12:42;15.70;99.90
20712;DHT22;10517;50.742;4.224;2022-10-31T09:15:08;15.80;99.90
20712;DHT22;10517;50.742;4.224;2022-10-31T09:17:33;16.00;99.90
20712;DHT22;10517;50.742;4.224;2022-10-31T09:19:59;16.00;99.90
20712;DHT22;10517;50.742;4.224;2022-10-31T09:22:25;16.10;99.90
20712;DHT22;10517;50.742;4.224;2022-10-31T09:24:50;16.20;99.90
20712;DHT22;10517;50.742;4.224;2022-10-31T09:27:16;16.20;99.90
20712;DHT22;10517;50.742;4.224;2022-10-31T09:29:41;16.20;99.90
20712;DHT22;10517;50.742;4.224;2022-10-31T09:32:07;16.30;99.90
20712;DHT22;10517;50.742;4.224;2022-10-31T09:34:32;16.30;99.90
20712;DHT22;10517;50.742;4.224;2022-10-31T09:36:58;16.30;99.90
20712;DHT22;10517;50.742;4.224;2022-10-31T09:39:23;16.40;99.90
20712;DHT22;10517;50.742;4.224;2022-10-31T09:44:45;16.40;99.90
20712;DHT22;10517;50.742;4.224;2022-10-31T09:47:27;16.50;99.90
20712;DHT22;10517;50.742;4.224;2022-10-31T09:50:18;16.70;99.90
20712;DHT22;10517;50.742;4.224;2022-10-31T09:55:45;17.00;99.90
20712;DHT22;10517;50.742;4.224;2022-10-31T09:58:19;17.20;99.90
20712;DHT22;10517;50.742;4.224;2022-10-31T10:00:47;17.20;99.90
20712;DHT22;10517;50.742;4.224;2022-10-31T10:03:22;17.30;99.90
20712;DHT22;10517;50.742;4.224;2022-10-31T10:06:41;17.30;99.90
20712;DHT22;10517;50.742;4.224;2022-10-31T10:08:40;17.40;99.90
20712;DHT22;10517;50.742;4.224;2022-10-31T10:14:18;17.40;99.90
20712;DHT22;10517;50.742;4.224;2022-10-31T10:20:24;17.40;99.90
20712;DHT22;10517;50.742;4.224;2022-10-31T10:25:20;17.10;99.90
20712;DHT22;10517;50.742;4.224;2022-10-31T10:33:20;17.30;99.90
20712;DHT22;10517;50.742;4.224;2022-10-31T10:35:50;17.30;99.90
20712;DHT22;10517;50.742;4.224;2022-10-31T10:39:22;17.00;99.90
20712;DHT22;10517;50.742;4.224;2022-10-31T10:41:24;16.60;99.90
20712;DHT22;10517;50.742;4.224;2022-10-31T10:43:50;16.50;99.90
20712;DHT22;10517;50.742;4.224;2022-10-31T10:49:32;16.80;99.90
20712;DHT22;10517;50.742;4.224;2022-10-31T11:00:12;17.10;99.90
20712;DHT22;10517;50.742;4.224;2022-10-31T11:02:41;17.30;99.90
20712;DHT22;10517;50.742;4.224;2022-10-31T11:05:22;17.50;99.90
20712;DHT22;10517;50.742;4.224;2022-10-31T11:07:48;17.30;99.90
20712;DHT22;10517;50.742;4.224;2022-10-31T11:10:15;17.50;99.90
20712;DHT22;10517;50.742;4.224;2022-10-31T11:12:43;17.60;99.90
20712;DHT22;10517;50.742;4.224;2022-10-31T11:15:21;17.60;99.90
20712;DHT22;10517;50.742;4.224;2022-10-31T11:17:52;17.80;99.90
20712;DHT22;10517;50.742;4.224;2022-10-31T11:22:46;18.30;99.90
20712;DHT22;10517;50.742;4.224;2022-10-31T11:25:25;18.40;99.90
20712;DHT22;10517;50.742;4.224;2022-10-31T11:28:05;18.60;99.90
20712;DHT22;10517;50.742;4.224;2022-10-31T11:30:41;18.80;99.90
20712;DHT22;10517;50.742;4.224;2022-10-31T11:33:19;18.80;99.90
20712;DHT22;10517;50.742;4.224;2022-10-31T11:35:47;18.90;99.90
20712;DHT22;10517;50.742;4.224;2022-10-31T11:38:21;19.00;99.90
20712;DHT22;10517;50.742;4.224;2022-10-31T11:40:54;19.20;99.90
20712;DHT22;10517;50.742;4.224;2022-10-31T11:43:21;19.50;99.90
20712;DHT22;10517;50.742;4.224;2022-10-31T11:45:47;19.40;99.90
20712;DHT22;10517;50.742;4.224;2022-10-31T11:48:18;19.40;99.90
20712;DHT22;10517;50.742;4.224;2022-10-31T11:50:56;19.40;99.90
20712;DHT22;10517;50.742;4.224;2022-10-31T11:53:33;19.50;99.90
20712;DHT22;10517;50.742;4.224;2022-10-31T11:56:12;19.60;99.90
20712;DHT22;10517;50.742;4.224;2022-10-31T11:58:39;19.70;99.90
20712;DHT22;10517;50.742;4.224;2022-10-31T12:01:04;19.80;99.90
20712;DHT22;10517;50.742;4.224;2022-10-31T12:06:07;20.30;99.90
20712;DHT22;10517;50.742;4.224;2022-10-31T12:08:36;20.30;99.90
20712;DHT22;10517;50.742;4.224;2022-10-31T12:17:10;20.00;99.90
20712;DHT22;10517;50.742;4.224;2022-10-31T12:19:59;19.90;99.90
20712;DHT22;10517;50.742;4.224;2022-10-31T12:28:28;20.10;99.90
20712;DHT22;10517;50.742;4.224;2022-10-31T12:34:02;20.50;99.90
20712;DHT22;10517;50.742;4.224;2022-10-31T12:41:52;20.70;99.90
20712;DHT22;10517;50.742;4.224;2022-10-31T12:55:55;21.60;99.90
20712;DHT22;10517;50.742;4.224;2022-10-31T12:58:33;22.20;99.90
20712;DHT22;10517;50.742;4.224;2022-10-31T13:01:10;22.90;99.90
20712;DHT22;10517;50.742;4.224;2022-10-31T13:07:30;24.00;99.90
20712;DHT22;10517;50.742;4.224;2022-10-31T13:10:31;24.20;99.90
20712;DHT22;10517;50.742;4.224;2022-10-31T13:13:37;24.30;99.90
20712;DHT22;10517;50.742;4.224;2022-10-31T13:16:28;24.30;99.90
20712;DHT22;10517;50.742;4.224;2022-10-31T13:19:04;24.60;99.90
20712;DHT22;10517;50.742;4.224;2022-10-31T13:24:18;24.70;99.90
20712;DHT22;10517;50.742;4.224;2022-10-31T13:26:56;25.10;99.90
20712;DHT22;10517;50.742;4.224;2022-10-31T13:29:43;25.10;99.90
20712;DHT22;10517;50.742;4.224;2022-10-31T13:32:13;25.30;99.90
20712;DHT22;10517;50.742;4.224;2022-10-31T13:34:44;25.20;99.90
20712;DHT22;10517;50.742;4.224;2022-10-31T13:39:53;25.50;99.90
20712;DHT22;10517;50.742;4.224;2022-10-31T13:45:20;25.80;99.90
20712;DHT22;10517;50.742;4.224;2022-10-31T13:48:19;26.10;99.90
20712;DHT22;10517;50.742;4.224;2022-10-31T13:51:24;26.30;99.90
20712;DHT22;10517;50.742;4.224;2022-10-31T13:54:06;25.60;99.90
20712;DHT22;10517;50.742;4.224;2022-10-31T13:56:33;25.00;99.90
20712;DHT22;10517;50.742;4.224;2022-10-31T14:01:33;24.80;99.90
20712;DHT22;10517;50.742;4.224;2022-10-31T14:04:18;24.70;99.90
20712;DHT22;10517;50.742;4.224;2022-10-31T14:07:07;24.00;99.90
20712;DHT22;10517;50.742;4.224;2022-10-31T14:09:34;23.40;99.90
20712;DHT22;10517;50.742;4.224;2022-10-31T14:12:22;23.60;99.90
20712;DHT22;10517;50.742;4.224;2022-10-31T14:14:51;23.40;99.90
20712;DHT22;10517;50.742;4.224;2022-10-31T14:17:20;22.90;99.90
20712;DHT22;10517;50.742;4.224;2022-10-31T14:22:37;22.00;99.90
20712;DHT22;10517;50.742;4.224;2022-10-31T14:25:25;21.80;99.90
20712;DHT22;10517;50.742;4.224;2022-10-31T14:27:51;21.90;99.90
20712;DHT22;10517;50.742;4.224;2022-10-31T14:30:20;21.60;99.90
20712;DHT22;10517;50.742;4.224;2022-10-31T14:32:57;21.50;99.90
20712;DHT22;10517;50.742;4.224;2022-10-31T14:35:42;21.40;99.90
20712;DHT22;10517;50.742;4.224;2022-10-31T14:38:33;21.40;99.90
20712;DHT22;10517;50.742;4.224;2022-10-31T14:50:03;21.00;99.90
20712;DHT22;10517;50.742;4.224;2022-10-31T14:52:22;21.00;99.90
20712;DHT22;10517;50.742;4.224;2022-10-31T14:54:51;21.00;99.90
20712;DHT22;10517;50.742;4.224;2022-10-31T14:57:22;21.00;99.90
20712;DHT22;10517;50.742;4.224;2022-10-31T14:59:52;20.90;99.90
20712;DHT22;10517;50.742;4.224;2022-10-31T15:02:29;20.90;99.90
20712;DHT22;10517;50.742;4.224;2022-10-31T15:04:57;20.70;99.90
20712;DHT22;10517;50.742;4.224;2022-10-31T15:07:26;20.60;99.90
20712;DHT22;10517;50.742;4.224;2022-10-31T15:10:00;20.50;99.90
20712;DHT22;10517;50.742;4.224;2022-10-31T15:12:32;20.40;99.90
20712;DHT22;10517;50.742;4.224;2022-10-31T15:15:10;20.30;99.90
20712;DHT22;10517;50.742;4.224;2022-10-31T15:17:35;20.30;99.90
20712;DHT22;10517;50.742;4.224;2022-10-31T15:20:10;20.30;99.90
20712;DHT22;10517;50.742;4.224;2022-10-31T15:22:35;20.10;99.90
20712;DHT22;10517;50.742;4.224;2022-10-31T15:25:02;20.00;99.90
20712;DHT22;10517;50.742;4.224;2022-10-31T15:27:27;20.00;99.90
20712;DHT22;10517;50.742;4.224;2022-10-31T15:29:56;19.80;99.90
20712;DHT22;10517;50.742;4.224;2022-10-31T15:32:27;19.70;99.90
20712;DHT22;10517;50.742;4.224;2022-10-31T15:34:54;19.60;99.90
20712;DHT22;10517;50.742;4.224;2022-10-31T15:37:22;19.40;99.90
20712;DHT22;10517;50.742;4.224;2022-10-31T15:39:50;19.30;99.90
20712;DHT22;10517;50.742;4.224;2022-10-31T15:42:29;19.20;99.90
20712;DHT22;10517;50.742;4.224;2022-10-31T15:45:16;19.10;99.90
20712;DHT22;10517;50.742;4.224;2022-10-31T15:47:57;19.10;99.90
20712;DHT22;10517;50.742;4.224;2022-10-31T15:50:35;19.10;99.90
20712;DHT22;10517;50.742;4.224;2022-10-31T15:53:01;19.00;99.90
20712;DHT22;10517;50.742;4.224;2022-10-31T15:55:30;18.90;99.90
20712;DHT22;10517;50.742;4.224;2022-10-31T15:58:00;18.80;99.90
20712;DHT22;10517;50.742;4.224;2022-10-31T16:05:48;18.50;99.90
20712;DHT22;10517;50.742;4.224;2022-10-31T16:08:45;18.50;99.90
20712;DHT22;10517;50.742;4.224;2022-10-31T16:13:51;18.10;99.90
20712;DHT22;10517;50.742;4.224;2022-10-31T16:16:18;18.00;99.90
20712;DHT22;10517;50.742;4.224;2022-10-31T16:18:46;17.80;99.90
20712;DHT22;10517;50.742;4.224;2022-10-31T16:21:11;17.80;99.90
20712;DHT22;10517;50.742;4.224;2022-10-31T16:23:39;17.70;99.90
20712;DHT22;10517;50.742;4.224;2022-10-31T16:26:10;17.70;99.90
20712;DHT22;10517;50.742;4.224;2022-10-31T16:28:39;17.60;99.90
20712;DHT22;10517;50.742;4.224;2022-10-31T16:31:13;17.50;99.90
20712;DHT22;10517;50.742;4.224;2022-10-31T16:33:39;17.40;99.90
20712;DHT22;10517;50.742;4.224;2022-10-31T16:38:56;17.20;99.90
20712;DHT22;10517;50.742;4.224;2022-10-31T16:41:21;17.00;99.90
20712;DHT22;10517;50.742;4.224;2022-10-31T16:43:48;17.00;99.90
20712;DHT22;10517;50.742;4.224;2022-10-31T16:46:24;16.90;99.90
20712;DHT22;10517;50.742;4.224;2022-10-31T16:48:51;16.80;99.90
20712;DHT22;10517;50.742;4.224;2022-10-31T16:51:17;16.70;99.90
20712;DHT22;10517;50.742;4.224;2022-10-31T16:53:42;16.70;99.90
20712;DHT22;10517;50.742;4.224;2022-10-31T16:56:17;16.60;99.90
20712;DHT22;10517;50.742;4.224;2022-10-31T16:58:43;16.80;99.90
20712;DHT22;10517;50.742;4.224;2022-10-31T17:01:11;16.90;99.90
20712;DHT22;10517;50.742;4.224;2022-10-31T17:03:38;16.90;99.90
20712;DHT22;10517;50.742;4.224;2022-10-31T17:06:04;16.90;99.90
20712;DHT22;10517;50.742;4.224;2022-10-31T17:08:29;16.80;99.90
20712;DHT22;10517;50.742;4.224;2022-10-31T17:10:56;16.90;99.90
20712;DHT22;10517;50.742;4.224;2022-10-31T17:13:25;16.90;99.90
20712;DHT22;10517;50.742;4.224;2022-10-31T17:15:55;16.80;99.90
20712;DHT22;10517;50.742;4.224;2022-10-31T17:18:22;16.80;99.90
20712;DHT22;10517;50.742;4.224;2022-10-31T17:20:47;16.90;99.90
20712;DHT22;10517;50.742;4.224;2022-10-31T17:23:14;16.80;99.90
20712;DHT22;10517;50.742;4.224;2022-10-31T17:25:41;16.80;99.90
20712;DHT22;10517;50.742;4.224;2022-10-31T17:28:10;16.80;99.90
20712;DHT22;10517;50.742;4.224;2022-10-31T17:30:37;17.00;99.90
20712;DHT22;10517;50.742;4.224;2022-10-31T17:33:02;17.00;99.90
20712;DHT22;10517;50.742;4.224;2022-10-31T17:35:28;16.90;99.90
20712;DHT22;10517;50.742;4.224;2022-10-31T17:37:53;17.00;99.90
20712;DHT22;10517;50.742;4.224;2022-10-31T17:40:20;17.00;99.90
20712;DHT22;10517;50.742;4.224;2022-10-31T17:42:53;17.00;99.90
20712;DHT22;10517;50.742;4.224;2022-10-31T17:45:19;17.20;99.90